Terminal Aerodrome Forecast
Issued by NWS

Home | Current Version | Previous Version | Text Only | Print | Product List | Glossary On
Versions: 1 2 3 4 5 6 7 8 9 10 11 12 13 14 15 16 17 18 19
000
FTUS42 KMHX 022355
TAFISO
TAF
KISO 022355Z 0300/0324 19007KT P6SM SKC
     FM030800 19002KT 5SM BR SKC
     FM031200 21006KT P6SM BKN200
     FM031700 20010KT P6SM VCSH SCT050
      AMD LTD TO CLD VIS AND WIND=

USA.gov is the U.S. government's official web portal to all federal, state and local government web resources and services.